createdAt,value
2022-09-15T14:03:56.026Z,87.00
2022-09-15T14:04:05.987Z,87.00
2022-09-15T14:04:35.051Z,95.00
2022-09-15T14:04:45.038Z,96.00
2022-09-15T14:04:55.040Z,97.00
2022-09-15T14:05:05.040Z,97.00
2022-09-15T14:05:15.040Z,97.00
2022-09-15T14:05:25.043Z,97.00
2022-09-15T14:05:35.046Z,96.00
2022-09-15T14:05:45.041Z,97.00
2022-09-15T14:05:55.045Z,96.00
2022-09-15T14:06:05.044Z,97.00
2022-09-15T14:06:15.043Z,97.00
2022-09-15T14:06:25.044Z,97.00
2022-09-15T14:06:35.054Z,97.00
2022-09-15T14:06:45.045Z,97.00
2022-09-15T14:06:58.503Z,97.00
2022-09-15T14:07:06.075Z,97.00
2022-09-15T14:07:25.047Z,96.00
2022-09-15T14:07:35.050Z,96.00
2022-09-15T14:07:46.137Z,96.00
2022-09-15T14:07:57.879Z,97.00
2022-09-15T14:08:06.053Z,97.00
2022-09-15T14:08:15.048Z,97.00
2022-09-15T14:08:25.052Z,97.00
2022-09-15T14:08:35.067Z,97.00
2022-09-15T14:08:45.173Z,96.00
2022-09-15T14:08:55.084Z,96.00
2022-09-15T14:09:05.053Z,96.00
2022-09-15T14:09:15.148Z,96.00
2022-09-15T14:09:25.054Z,96.00
2022-09-15T14:09:35.060Z,96.00
2022-09-15T14:09:45.056Z,96.00
2022-09-15T14:09:55.057Z,96.00
2022-09-15T14:10:05.056Z,97.00
2022-09-15T14:10:15.056Z,96.00
2022-09-15T14:10:25.060Z,98.00
2022-09-15T14:10:35.059Z,98.00
2022-09-15T14:10:45.061Z,98.00
2022-09-15T14:10:55.060Z,98.00
2022-09-15T14:11:05.060Z,94.00
2022-09-15T14:11:15.064Z,83.00
2022-09-15T14:11:25.062Z,82.00
2022-09-15T14:11:35.069Z,82.00
2022-09-15T14:11:45.063Z,82.00
2022-09-15T14:11:55.066Z,82.00
2022-09-15T14:12:05.067Z,82.00
2022-09-15T14:12:15.094Z,82.00
2022-09-15T14:12:25.070Z,82.00
2022-09-15T14:12:35.073Z,83.00
2022-09-15T14:12:45.069Z,85.00
2022-09-15T14:12:55.072Z,86.00
2022-09-15T14:13:05.074Z,86.00
2022-09-15T14:13:15.071Z,86.00
2022-09-15T14:13:25.073Z,86.00
2022-09-15T14:13:35.079Z,87.00
2022-09-15T14:13:45.075Z,86.00
2022-09-15T14:13:55.080Z,86.00
2022-09-15T14:14:05.078Z,88.00
2022-09-15T14:14:15.079Z,88.00
2022-09-15T14:14:25.083Z,88.00
2022-09-15T14:14:35.090Z,89.00
2022-09-15T14:14:45.089Z,87.00
2022-09-15T14:14:55.078Z,84.00
2022-09-15T14:15:05.079Z,84.00
2022-09-15T14:15:15.078Z,86.00
2022-09-15T14:15:25.079Z,88.00
2022-09-15T14:15:35.081Z,89.00
2022-09-15T14:15:45.086Z,87.00
2022-09-15T14:15:55.082Z,89.00
2022-09-15T14:16:07.150Z,92.00
2022-09-15T14:16:16.106Z,95.00
2022-09-15T14:16:25.150Z,99.00
2022-09-15T14:16:35.137Z,105.00
2022-09-15T14:16:45.134Z,125.00
2022-09-15T14:16:55.231Z,112.00
2022-09-15T14:17:05.146Z,97.00
2022-09-15T14:17:15.087Z,95.00
2022-09-15T14:17:25.097Z,93.00
2022-09-15T14:17:35.089Z,95.00
2022-09-15T14:17:45.090Z,94.00
2022-09-15T14:17:55.094Z,94.00
2022-09-15T14:18:05.091Z,93.00
2022-09-15T14:18:15.093Z,95.00
2022-09-15T14:18:25.097Z,92.00
2022-09-15T14:18:35.094Z,92.00
2022-09-15T14:18:45.096Z,92.00
2022-09-15T14:18:55.096Z,91.00
2022-09-15T14:19:05.097Z,91.00
2022-09-15T14:19:15.100Z,91.00
2022-09-15T14:19:25.098Z,89.00
2022-09-15T14:19:35.119Z,90.00
2022-09-15T14:19:45.099Z,89.00
2022-09-15T14:19:55.100Z,89.00
2022-09-15T14:20:05.103Z,89.00
2022-09-15T14:20:15.103Z,88.00
2022-09-15T14:20:25.111Z,87.00
2022-09-15T14:20:35.102Z,82.00
2022-09-15T14:20:45.110Z,88.00
2022-09-15T14:20:55.106Z,86.00
2022-09-15T14:21:05.113Z,89.00
2022-09-15T14:21:15.135Z,88.00
2022-09-15T14:21:25.107Z,87.00
2022-09-15T14:21:35.114Z,86.00
2022-09-15T14:21:45.109Z,89.00
2022-09-15T14:21:58.553Z,89.00
2022-09-15T14:22:05.111Z,74.00
2022-09-15T14:22:15.113Z,28.00
2022-09-15T14:22:25.115Z,4.00
2022-09-15T14:22:35.114Z,39.00
2022-09-15T14:22:45.115Z,89.00
2022-09-15T14:22:55.114Z,88.00
2022-09-15T14:23:05.116Z,83.00
2022-09-15T14:23:15.117Z,70.00
2022-09-15T14:23:25.116Z,74.00
2022-09-15T14:23:35.117Z,89.00
2022-09-15T14:23:45.166Z,89.00
2022-09-15T14:23:55.127Z,88.00
2022-09-15T14:24:05.120Z,89.00
2022-09-15T14:24:15.165Z,88.00
2022-09-15T14:24:25.123Z,87.00
2022-09-15T14:24:35.128Z,88.00
2022-09-15T14:24:45.123Z,88.00
2022-09-15T14:24:55.126Z,88.00
2022-09-15T14:25:05.122Z,86.00
2022-09-15T14:25:15.129Z,86.00
2022-09-15T14:25:25.131Z,86.00
2022-09-15T14:25:35.131Z,86.00
2022-09-15T14:25:45.127Z,86.00
2022-09-15T14:25:55.127Z,86.00
2022-09-15T14:26:05.130Z,84.00
2022-09-15T14:26:15.129Z,84.00
2022-09-15T14:26:25.135Z,84.00
2022-09-15T14:26:35.131Z,83.00
2022-09-15T14:26:45.134Z,83.00
2022-09-15T14:26:55.135Z,82.00
2022-09-15T14:27:05.137Z,82.00
2022-09-15T14:27:15.135Z,82.00
2022-09-15T14:27:25.151Z,82.00
2022-09-15T14:27:35.137Z,80.00
2022-09-15T14:27:45.139Z,81.00
2022-09-15T14:27:55.139Z,81.00
2022-09-15T14:28:05.142Z,81.00
2022-09-15T14:28:15.141Z,81.00
2022-09-15T14:28:29.471Z,66.00
2022-09-15T14:28:36.144Z,11.00
2022-09-15T14:28:45.148Z,13.00
2022-09-15T14:54:58.841Z,7.00
2022-09-15T14:55:08.823Z,6.00
2022-09-15T14:55:18.827Z,11.00
2022-09-15T14:55:28.828Z,11.00
2022-09-15T14:55:38.831Z,13.00
2022-09-15T14:55:48.841Z,13.00
2022-09-15T14:55:58.828Z,13.00
2022-09-15T14:56:08.838Z,13.00
2022-09-15T14:56:18.833Z,12.00
2022-09-15T14:56:28.833Z,10.00
2022-09-15T14:56:38.831Z,12.00
2022-09-15T14:56:48.834Z,12.00
2022-09-15T14:56:58.830Z,12.00
2022-09-15T14:57:08.833Z,13.00
2022-09-15T14:57:18.850Z,16.00
2022-09-15T14:57:31.327Z,18.00
2022-09-15T14:57:38.862Z,17.00
2022-09-15T14:57:48.875Z,15.00
2022-09-15T14:57:58.873Z,17.00
2022-09-15T14:58:08.837Z,16.00
2022-09-15T14:58:18.838Z,14.00
2022-09-15T14:58:28.847Z,14.00
2022-09-15T14:58:38.841Z,15.00
2022-09-15T14:58:48.841Z,13.00
2022-09-15T14:58:58.845Z,15.00
2022-09-15T14:59:08.842Z,15.00
2022-09-15T14:59:18.844Z,17.00
2022-09-15T14:59:28.844Z,14.00
2022-09-15T14:59:38.853Z,14.00
2022-09-15T14:59:48.844Z,15.00
2022-09-15T14:59:58.849Z,10.00
2022-09-15T15:00:08.852Z,12.00
2022-09-15T15:00:18.851Z,12.00
2022-09-15T15:00:28.847Z,12.00
2022-09-15T15:00:38.939Z,17.00
2022-09-15T15:00:48.935Z,17.00
2022-09-15T15:00:58.891Z,17.00
2022-09-15T15:01:08.891Z,17.00
2022-09-15T15:01:18.904Z,17.00
2022-09-15T15:01:28.884Z,17.00
2022-09-15T15:01:38.885Z,17.00
2022-09-15T15:01:49.838Z,12.00
2022-09-15T15:01:58.918Z,12.00
2022-09-15T15:02:08.905Z,12.00
2022-09-15T15:02:18.916Z,10.00
2022-09-15T15:02:28.933Z,10.00
2022-09-15T15:02:38.925Z,10.00
2022-09-15T15:02:48.862Z,10.00
2022-09-15T15:02:58.859Z,10.00
2022-09-15T15:03:08.870Z,10.00
2022-09-15T15:03:18.851Z,10.00
2022-09-15T15:03:28.865Z,10.00
2022-09-15T15:03:38.864Z,12.00
2022-09-15T15:03:48.867Z,12.00
2022-09-15T15:03:58.865Z,12.00
2022-09-15T15:04:08.869Z,17.00
2022-09-15T15:04:18.882Z,17.00
2022-09-15T15:04:28.868Z,17.00
2022-09-15T15:04:38.869Z,17.00
2022-09-15T15:04:48.895Z,17.00
2022-09-15T15:04:58.871Z,17.00
2022-09-15T15:05:08.871Z,18.00
2022-09-15T15:05:18.884Z,21.00
2022-09-15T15:05:28.873Z,19.00
2022-09-15T15:05:38.871Z,21.00
2022-09-15T15:05:48.877Z,21.00
2022-09-15T15:06:02.671Z,21.00
2022-09-15T15:06:28.399Z,20.00
2022-09-15T15:06:30.139Z,20.00
2022-09-15T15:06:35.379Z,20.00
2022-09-15T15:06:38.877Z,22.00
2022-09-15T15:06:48.879Z,21.00
2022-09-15T15:06:58.877Z,21.00
2022-09-15T15:07:08.879Z,21.00
2022-09-15T15:07:18.880Z,22.00
2022-09-15T15:07:28.885Z,20.00
2022-09-15T15:07:38.890Z,22.00
2022-09-15T15:07:48.883Z,22.00
2022-09-15T15:07:58.882Z,22.00
2022-09-15T15:08:08.883Z,22.00
2022-09-15T15:08:18.884Z,22.00
2022-09-15T15:08:28.899Z,20.00
2022-09-15T15:08:38.886Z,20.00
2022-09-15T15:08:48.888Z,21.00
2022-09-15T15:08:58.891Z,23.00
2022-09-15T15:09:08.889Z,21.00
2022-09-15T15:09:18.925Z,21.00
2022-09-15T15:09:28.894Z,21.00
2022-09-15T15:09:38.891Z,21.00
2022-09-15T15:09:48.900Z,19.00
2022-09-15T15:09:58.891Z,20.00
2022-09-15T15:10:08.897Z,22.00
2022-09-15T15:10:18.892Z,20.00
2022-09-15T15:10:33.489Z,20.00
2022-09-15T15:10:39.893Z,20.00
2022-09-15T15:10:48.894Z,21.00
2022-09-15T15:10:58.892Z,21.00
2022-09-15T15:11:08.894Z,21.00
2022-09-15T15:11:18.894Z,21.00
2022-09-15T15:11:28.900Z,21.00
2022-09-15T15:11:38.882Z,21.00
2022-09-15T15:11:48.896Z,21.00
2022-09-15T15:11:58.897Z,22.00
2022-09-15T15:12:08.911Z,20.00
2022-09-15T15:12:18.901Z,20.00
2022-09-15T15:12:28.898Z,20.00
2022-09-15T15:12:38.899Z,22.00
2022-09-15T15:12:48.926Z,22.00
2022-09-15T15:12:58.903Z,22.00
2022-09-15T15:13:08.908Z,22.00
2022-09-15T15:13:18.904Z,22.00
2022-09-15T15:13:28.902Z,22.00
2022-09-15T15:13:38.904Z,20.00
2022-09-15T15:13:48.910Z,21.00
2022-09-15T15:13:58.904Z,21.00
2022-09-15T15:14:08.978Z,21.00
2022-09-15T15:14:18.972Z,21.00
2022-09-15T15:14:28.912Z,19.00
2022-09-15T15:14:38.910Z,19.00
2022-09-15T15:14:48.929Z,19.00
2022-09-15T15:14:58.910Z,21.00
2022-09-15T15:15:08.911Z,21.00
2022-09-15T15:15:18.913Z,20.00
2022-09-15T15:15:28.914Z,20.00
2022-09-15T15:15:38.915Z,22.00
2022-09-15T15:15:48.915Z,21.00
2022-09-15T15:15:58.916Z,20.00
2022-09-15T15:16:08.971Z,20.00
2022-09-15T15:16:18.961Z,26.00
2022-09-15T15:16:28.992Z,22.00
2022-09-15T15:16:39.031Z,22.00
2022-09-15T15:16:48.969Z,24.00
2022-09-15T15:16:59.029Z,22.00
2022-09-15T15:17:08.920Z,22.00
2022-09-15T15:17:18.920Z,24.00
2022-09-15T15:17:28.951Z,27.00
2022-09-15T15:17:38.925Z,24.00
2022-09-15T15:17:48.924Z,25.00
2022-09-15T15:17:58.971Z,29.00
2022-09-15T15:18:08.925Z,26.00
2022-09-15T15:18:18.923Z,33.00
2022-09-15T15:18:31.694Z,33.00
2022-09-15T15:18:38.930Z,36.00
2022-09-15T15:18:48.928Z,39.00
2022-09-15T15:18:58.930Z,38.00
2022-09-15T15:19:08.930Z,35.00
2022-09-15T15:19:18.928Z,33.00
2022-09-15T15:19:28.946Z,32.00
2022-09-15T15:19:38.928Z,32.00
2022-09-15T15:19:48.940Z,32.00
2022-09-15T15:19:58.940Z,32.00
2022-09-15T15:20:08.933Z,34.00
2022-09-15T15:20:18.941Z,31.00
2022-09-15T15:20:28.934Z,34.00
2022-09-15T15:20:38.935Z,36.00
2022-09-15T15:20:48.946Z,39.00
2022-09-15T15:20:58.943Z,39.00
2022-09-15T15:21:08.936Z,33.00
2022-09-15T15:21:18.937Z,48.00
2022-09-15T15:21:28.940Z,32.00
2022-09-15T15:21:38.938Z,33.00
2022-09-15T15:21:48.942Z,29.00
2022-09-15T15:21:59.476Z,28.00
2022-09-15T15:22:08.941Z,29.00
2022-09-15T15:22:18.941Z,31.00
2022-09-15T15:22:28.942Z,31.00
2022-09-15T15:22:39.789Z,34.00
2022-09-15T15:22:48.943Z,31.00
2022-09-15T15:22:58.943Z,34.00
2022-09-15T15:23:08.946Z,24.00
2022-09-15T15:23:18.946Z,51.00
2022-09-15T15:23:28.960Z,35.00
2022-09-15T15:23:42.232Z,32.00
2022-09-15T15:23:50.233Z,28.00
2022-09-15T15:23:58.970Z,27.00
2022-09-15T15:24:08.957Z,28.00
2022-09-15T15:24:18.995Z,25.00
2022-09-15T15:24:28.954Z,24.00
2022-09-15T15:24:38.953Z,25.00
2022-09-15T15:24:48.959Z,24.00
2022-09-15T15:24:58.952Z,21.00
2022-09-15T15:25:08.955Z,21.00
2022-09-15T15:25:18.960Z,19.00
2022-09-15T15:25:28.964Z,17.00
2022-09-15T15:25:38.961Z,17.00
2022-09-15T15:25:48.962Z,17.00
2022-09-15T15:25:58.967Z,14.00
2022-09-15T15:26:08.957Z,17.00
2022-09-15T15:26:18.959Z,17.00
2022-09-15T15:26:28.958Z,17.00
2022-09-15T15:26:38.959Z,15.00
2022-09-15T15:26:48.960Z,14.00
2022-09-15T15:26:58.962Z,16.00
2022-09-15T15:27:08.961Z,17.00
2022-09-15T15:27:18.962Z,17.00
2022-09-15T15:27:28.963Z,17.00
2022-09-15T15:27:38.964Z,16.00
2022-09-15T15:27:48.966Z,18.00
2022-09-15T15:27:58.966Z,18.00
2022-09-15T15:28:08.968Z,14.00
2022-09-15T15:28:18.967Z,12.00
2022-09-15T15:28:28.968Z,13.00
2022-09-15T15:28:38.970Z,13.00
2022-09-15T15:28:48.971Z,13.00
2022-09-15T15:28:58.971Z,12.00
2022-09-15T15:29:08.972Z,12.00
2022-09-15T15:29:18.972Z,12.00
2022-09-15T15:29:28.976Z,10.00
2022-09-15T15:29:38.975Z,10.00
2022-09-15T15:29:48.974Z,7.00
2022-09-15T15:29:58.974Z,7.00
2022-09-15T15:30:08.979Z,7.00
2022-09-15T15:30:18.976Z,11.00
2022-09-15T15:30:28.975Z,11.00
2022-09-15T15:30:38.978Z,11.00
2022-09-15T15:30:48.986Z,12.00
2022-09-15T15:30:59.014Z,15.00
2022-09-15T15:31:09.001Z,10.00
2022-09-15T15:31:19.070Z,10.00
2022-09-15T15:31:29.022Z,9.00
2022-09-15T15:31:39.007Z,11.00
2022-09-15T15:31:49.007Z,11.00
2022-09-15T15:31:59.026Z,9.00
2022-09-15T15:32:09.059Z,9.00
2022-09-15T15:32:18.979Z,9.00
2022-09-15T15:32:28.987Z,8.00
2022-09-15T15:32:38.991Z,10.00
2022-09-15T15:32:48.988Z,9.00
2022-09-15T15:32:58.992Z,7.00
2022-09-15T15:33:08.989Z,5.00
2022-09-15T15:33:19.758Z,5.00
2022-09-15T15:33:29.001Z,5.00
2022-09-15T15:33:38.992Z,6.00
2022-09-15T15:33:48.997Z,8.00
2022-09-15T15:33:58.996Z,6.00
2022-09-15T15:34:08.995Z,6.00
2022-09-15T15:34:18.996Z,6.00
2022-09-15T15:34:29.000Z,6.00
2022-09-15T15:34:38.996Z,6.00
2022-09-15T15:34:48.997Z,6.00
2022-09-15T15:34:58.999Z,6.00
2022-09-15T15:35:08.983Z,6.00
2022-09-15T15:35:19.002Z,6.00
2022-09-15T15:35:29.002Z,6.00
2022-09-15T15:35:39.002Z,7.00
2022-09-15T15:35:49.002Z,7.00
2022-09-15T15:35:59.002Z,7.00
2022-09-15T15:36:09.014Z,7.00
2022-09-15T15:36:19.007Z,7.00
2022-09-15T15:36:29.008Z,5.00
2022-09-15T15:36:39.008Z,5.00
2022-09-15T15:36:49.008Z,5.00
2022-09-15T15:36:59.008Z,5.00
2022-09-15T15:37:09.008Z,5.00
2022-09-15T15:37:19.036Z,5.00
2022-09-15T15:37:29.009Z,5.00
2022-09-15T15:37:39.010Z,5.00
2022-09-15T15:37:49.013Z,5.00
2022-09-15T15:37:59.015Z,5.00
2022-09-15T15:38:09.022Z,6.00
2022-09-15T15:38:19.015Z,8.00
2022-09-15T15:38:29.017Z,8.00
2022-09-15T15:38:39.444Z,8.00
2022-09-15T15:38:49.020Z,8.00
2022-09-15T15:38:59.065Z,8.00
2022-09-15T15:39:09.021Z,8.00
2022-09-15T15:39:19.019Z,8.00
2022-09-15T15:39:29.024Z,8.00
2022-09-15T15:39:39.021Z,8.00
2022-09-15T15:39:49.058Z,4.00
2022-09-15T15:39:59.122Z,4.00
2022-09-15T15:40:09.106Z,6.00
2022-09-15T15:40:19.104Z,7.00
2022-09-15T15:40:29.115Z,7.00
2022-09-15T15:40:39.029Z,7.00
2022-09-15T15:40:49.027Z,7.00
2022-09-15T15:40:59.028Z,7.00
2022-09-15T15:41:09.032Z,5.00
2022-09-15T15:41:19.028Z,5.00
2022-09-15T15:41:29.029Z,5.00
2022-09-15T15:41:39.046Z,5.00
2022-09-15T15:41:59.033Z,2.00
2022-09-15T15:42:09.038Z,2.00
2022-09-15T15:42:19.035Z,2.00
2022-09-15T15:42:29.162Z,2.00
2022-09-15T15:42:39.036Z,2.00
2022-09-15T15:42:49.036Z,2.00
2022-09-15T15:43:00.136Z,2.00
2022-09-15T15:43:09.045Z,1.00
2022-09-15T15:43:19.039Z,1.00
2022-09-15T15:43:29.041Z,1.00
2022-09-15T15:43:39.042Z,2.00
2022-09-15T15:43:49.041Z,6.00
2022-09-15T15:43:59.040Z,6.00
2022-09-15T15:44:09.044Z,6.00
2022-09-15T15:44:19.040Z,4.00
2022-09-15T15:44:29.051Z,4.00
2022-09-15T15:44:39.043Z,4.00
2022-09-15T15:44:49.045Z,4.00
2022-09-15T15:44:59.043Z,4.00
2022-09-15T15:45:09.042Z,4.00
2022-09-15T15:45:19.110Z,5.00
2022-09-15T15:45:29.077Z,7.00
2022-09-15T15:45:39.094Z,5.00
2022-09-15T15:45:49.077Z,5.00
2022-09-15T15:45:59.075Z,5.00
2022-09-15T15:46:09.077Z,5.00
2022-09-15T15:46:19.053Z,5.00
2022-09-15T15:46:29.053Z,5.00
2022-09-15T15:46:39.049Z,5.00
2022-09-15T15:46:49.052Z,5.00
2022-09-15T15:46:59.056Z,2.00
2022-09-15T15:47:09.053Z,1.00
2022-09-15T15:47:19.054Z,1.00
2022-09-15T15:47:29.058Z,1.00
2022-09-15T15:47:39.056Z,1.00
2022-09-15T15:47:49.056Z,1.00
2022-09-15T15:47:59.059Z,1.00
2022-09-15T15:48:09.061Z,1.00
2022-09-15T15:48:19.064Z,1.00
2022-09-15T15:48:31.687Z,3.00
2022-09-15T15:48:40.064Z,3.00
2022-09-15T15:48:49.065Z,3.00
2022-09-15T15:48:59.065Z,3.00
2022-09-15T15:49:09.067Z,3.00
2022-09-15T15:49:19.066Z,3.00
2022-09-15T15:49:29.072Z,3.00
2022-09-15T15:49:46.217Z,3.00
2022-09-15T15:50:11.750Z,2.00
2022-09-15T15:50:12.716Z,1.00
2022-09-15T15:50:13.327Z,1.00
2022-09-15T15:50:19.070Z,1.00
2022-09-15T15:50:29.070Z,1.00
2022-09-15T15:50:39.071Z,1.00
2022-09-15T15:50:49.079Z,1.00
2022-09-15T15:50:59.072Z,3.00
2022-09-15T15:51:09.077Z,3.00
2022-09-15T15:51:19.075Z,3.00
2022-09-15T15:51:29.073Z,3.00
2022-09-15T15:51:39.074Z,3.00
2022-09-15T15:51:49.085Z,3.00
2022-09-15T15:51:59.079Z,3.00
2022-09-15T15:52:09.080Z,3.00
2022-09-15T15:52:19.079Z,3.00
2022-09-15T15:52:29.080Z,3.00
2022-09-15T15:52:39.080Z,3.00
2022-09-15T15:52:49.081Z,3.00
2022-09-15T15:52:59.083Z,3.00
2022-09-15T15:53:09.082Z,3.00
2022-09-15T15:53:19.091Z,3.00
2022-09-15T15:53:29.085Z,3.00
2022-09-15T15:53:39.098Z,3.00
2022-09-15T15:53:49.083Z,3.00
2022-09-15T15:53:59.087Z,3.00
2022-09-15T15:54:09.085Z,3.00
2022-09-15T15:54:19.086Z,3.00
2022-09-15T15:54:29.089Z,3.00
2022-09-15T15:54:39.084Z,3.00
2022-09-15T15:54:49.088Z,3.00
2022-09-15T15:54:59.091Z,3.00
2022-09-15T15:55:09.089Z,3.00
2022-09-15T15:55:19.094Z,3.00
2022-09-15T15:55:29.093Z,3.00
2022-09-15T15:55:39.094Z,3.00
2022-09-15T15:55:49.078Z,3.00
2022-09-15T15:55:59.095Z,3.00
2022-09-15T15:56:09.077Z,3.00
2022-09-15T15:56:19.096Z,3.00
2022-09-15T15:56:29.096Z,3.00
2022-09-15T15:56:39.117Z,3.00
2022-09-15T15:56:49.097Z,4.00
2022-09-15T15:56:59.099Z,6.00
2022-09-15T15:57:09.099Z,6.00
2022-09-15T15:57:19.100Z,6.00
2022-09-15T15:57:29.103Z,6.00
2022-09-15T15:57:39.102Z,6.00
2022-09-15T15:57:49.103Z,6.00
2022-09-15T15:57:59.116Z,6.00
2022-09-15T15:58:09.103Z,6.00
2022-09-15T15:58:19.105Z,6.00
2022-09-15T15:58:29.109Z,6.00
2022-09-15T15:58:39.107Z,6.00
2022-09-15T15:58:49.105Z,6.00
2022-09-15T15:58:59.109Z,6.00
2022-09-15T15:59:09.107Z,5.00
2022-09-15T15:59:19.109Z,3.00
2022-09-15T15:59:29.125Z,3.00
2022-09-15T15:59:39.110Z,4.00
2022-09-15T15:59:49.110Z,6.00
2022-09-15T15:59:59.119Z,6.00
2022-09-15T16:00:09.113Z,6.00
2022-09-15T16:00:21.561Z,6.00
2022-09-15T16:00:29.120Z,6.00
2022-09-15T16:00:39.145Z,6.00
2022-09-15T16:00:49.168Z,6.00
2022-09-15T16:00:59.161Z,6.00
2022-09-15T16:01:09.189Z,2.00
2022-09-15T16:01:19.160Z,2.00
2022-09-15T16:01:29.122Z,2.00
2022-09-15T16:01:39.152Z,2.00
2022-09-15T16:01:49.188Z,2.00
2022-09-15T16:01:59.174Z,2.00
2022-09-15T16:02:09.254Z,0.00
2022-09-15T16:02:19.226Z,0.00
2022-09-15T16:02:29.177Z,0.00
2022-09-15T16:02:39.179Z,0.00
2022-09-15T16:02:49.182Z,0.00
2022-09-15T16:02:59.182Z,0.00
2022-09-15T16:03:09.187Z,0.00
2022-09-15T16:03:19.178Z,0.00
2022-09-15T16:03:29.179Z,0.00
2022-09-15T16:03:39.184Z,0.00
2022-09-15T16:03:49.188Z,0.00
2022-09-15T16:03:59.185Z,0.00
2022-09-15T16:04:09.187Z,0.00
2022-09-15T16:04:19.189Z,0.00
2022-09-15T16:04:29.189Z,0.00
2022-09-15T16:04:39.184Z,0.00
2022-09-15T16:04:49.186Z,0.00
2022-09-15T16:04:59.137Z,1.00
2022-09-15T16:05:09.135Z,3.00
2022-09-15T16:05:19.139Z,3.00
2022-09-15T16:05:29.208Z,3.00
2022-09-15T16:05:39.139Z,1.00
2022-09-15T16:05:49.138Z,1.00
2022-09-15T16:05:59.192Z,1.00
2022-09-15T16:06:09.142Z,1.00
2022-09-15T16:06:19.139Z,1.00
2022-09-15T16:06:29.140Z,1.00
2022-09-15T16:06:39.144Z,1.00
2022-09-15T16:06:49.150Z,1.00
2022-09-15T16:06:59.142Z,1.00
2022-09-15T16:07:09.173Z,1.00
2022-09-15T16:07:19.146Z,1.00
2022-09-15T16:07:33.181Z,1.00
2022-09-15T16:07:39.144Z,1.00
2022-09-15T16:07:49.147Z,1.00
2022-09-15T16:07:59.145Z,1.00
2022-09-15T16:08:09.147Z,3.00
2022-09-15T16:08:19.148Z,3.00
2022-09-15T16:08:29.147Z,2.00
2022-09-15T16:08:39.205Z,0.00
2022-09-15T16:08:49.202Z,0.00
2022-09-15T16:08:59.204Z,0.00
2022-09-15T16:09:09.207Z,0.00
2022-09-15T16:09:19.205Z,0.00
2022-09-15T16:09:29.211Z,0.00
2022-09-15T16:09:39.164Z,2.00
2022-09-15T16:09:49.158Z,2.00
2022-09-15T16:09:59.159Z,2.00
2022-09-15T16:10:09.154Z,2.00
2022-09-15T16:10:19.169Z,2.00
2022-09-15T16:10:29.157Z,2.00
2022-09-15T16:10:39.157Z,6.00
2022-09-15T16:10:49.163Z,5.00
2022-09-15T16:10:59.161Z,3.00
2022-09-15T16:11:09.162Z,3.00
2022-09-15T16:11:19.162Z,3.00
2022-09-15T16:11:29.163Z,3.00
2022-09-15T16:11:39.163Z,3.00
2022-09-15T16:11:49.208Z,3.00
2022-09-15T16:11:59.167Z,3.00
2022-09-15T16:12:09.175Z,3.00
2022-09-15T16:12:19.175Z,3.00
2022-09-15T16:12:30.810Z,3.00
2022-09-15T16:12:39.174Z,3.00
2022-09-15T16:12:49.172Z,2.00
2022-09-15T16:12:59.172Z,1.00
2022-09-15T16:13:09.171Z,1.00
2022-09-15T16:13:19.174Z,1.00
2022-09-15T16:13:29.173Z,1.00
2022-09-15T16:13:39.173Z,5.00
2022-09-15T16:13:49.172Z,5.00
2022-09-15T16:13:59.171Z,5.00
2022-09-15T16:14:09.171Z,5.00
2022-09-15T16:14:19.189Z,5.00
2022-09-15T16:14:29.185Z,5.00
2022-09-15T16:14:39.173Z,5.00
2022-09-15T16:14:49.182Z,5.00
2022-09-15T16:14:59.175Z,5.00
2022-09-15T16:15:09.178Z,5.00
2022-09-15T16:15:19.199Z,5.00
2022-09-15T16:15:29.177Z,5.00
2022-09-15T16:15:39.181Z,5.00
2022-09-15T16:15:49.221Z,5.00
2022-09-15T16:15:59.229Z,5.00
2022-09-15T16:16:09.196Z,7.00
2022-09-15T16:16:19.218Z,7.00
2022-09-15T16:16:29.268Z,7.00
2022-09-15T16:16:39.224Z,7.00
2022-09-15T16:16:49.188Z,7.00
2022-09-15T16:16:59.187Z,7.00
2022-09-15T16:17:09.186Z,5.00
2022-09-15T16:17:19.187Z,5.00
2022-09-15T16:17:29.187Z,5.00
2022-09-15T16:17:43.075Z,5.00
2022-09-15T16:17:50.191Z,5.00
2022-09-15T16:17:59.192Z,5.00
2022-09-15T16:18:09.193Z,5.00
2022-09-15T16:18:19.193Z,5.00
2022-09-15T16:18:29.197Z,5.00
2022-09-15T16:18:39.224Z,5.00
2022-09-15T16:18:49.203Z,5.00
2022-09-15T16:18:59.193Z,5.00
2022-09-15T16:19:09.194Z,5.00
2022-09-15T16:19:19.195Z,3.00
2022-09-15T16:19:29.201Z,2.00
2022-09-15T16:19:39.196Z,1.00
2022-09-15T16:19:49.199Z,3.00
2022-09-15T16:19:59.198Z,3.00
2022-09-15T16:20:09.198Z,3.00
2022-09-15T16:20:19.201Z,3.00
2022-09-15T16:20:29.200Z,3.00
2022-09-15T16:20:39.199Z,3.00
2022-09-15T16:20:49.204Z,3.00
2022-09-15T16:20:59.208Z,3.00
2022-09-15T16:21:09.202Z,3.00
2022-09-15T16:21:19.204Z,3.00
2022-09-15T16:21:29.203Z,3.00
2022-09-15T16:21:39.204Z,4.00
2022-09-15T16:21:49.203Z,6.00
2022-09-15T16:21:59.207Z,6.00
2022-09-15T16:22:09.207Z,5.00
2022-09-15T16:22:19.206Z,4.00
2022-09-15T16:22:29.208Z,6.00
2022-09-15T16:22:39.210Z,6.00
2022-09-15T16:22:49.219Z,6.00
2022-09-15T16:22:59.208Z,6.00
2022-09-15T16:23:09.209Z,2.00
2022-09-15T16:23:19.210Z,2.00
2022-09-15T16:23:29.211Z,2.00
2022-09-15T16:23:39.216Z,2.00
2022-09-15T16:23:49.213Z,2.00
2022-09-15T16:23:59.215Z,6.00
2022-09-15T16:24:09.217Z,5.00
2022-09-15T16:24:19.215Z,3.00
2022-09-15T16:24:29.219Z,3.00
2022-09-15T16:24:39.220Z,3.00
2022-09-15T16:24:49.216Z,3.00
2022-09-15T16:24:59.222Z,3.00
2022-09-15T16:25:09.219Z,3.00
2022-09-15T16:25:19.221Z,3.00
2022-09-15T16:25:29.222Z,3.00
2022-09-15T16:25:39.221Z,3.00
2022-09-15T16:25:49.221Z,3.00
2022-09-15T16:25:59.240Z,3.00
2022-09-15T16:26:09.224Z,3.00
2022-09-15T16:26:19.211Z,3.00
2022-09-15T16:26:29.226Z,3.00
2022-09-15T16:26:39.211Z,3.00
2022-09-15T16:26:53.140Z,3.00
2022-09-15T16:26:59.227Z,3.00
2022-09-15T16:27:09.229Z,3.00
2022-09-15T16:27:19.228Z,3.00
2022-09-15T16:27:29.231Z,2.00
2022-09-15T16:27:39.229Z,1.00
2022-09-15T16:27:49.231Z,1.00
2022-09-15T16:27:59.230Z,1.00
2022-09-15T16:28:09.229Z,3.00
2022-09-15T16:28:19.231Z,3.00
2022-09-15T16:28:29.243Z,3.00
2022-09-15T16:28:39.234Z,5.00
2022-09-15T16:28:49.234Z,5.00
2022-09-15T16:28:59.233Z,5.00
2022-09-15T16:29:09.240Z,5.00
2022-09-15T16:29:19.236Z,6.00
2022-09-15T16:29:29.238Z,4.00
2022-09-15T16:29:39.237Z,4.00
2022-09-15T16:29:49.239Z,4.00
2022-09-15T16:29:59.239Z,6.00
2022-09-15T16:30:09.244Z,6.00
2022-09-15T16:30:19.242Z,5.00
2022-09-15T16:30:29.244Z,1.00
2022-09-15T16:30:39.242Z,1.00
2022-09-15T16:30:49.244Z,1.00
2022-09-15T16:30:59.394Z,1.00
2022-09-15T16:31:09.307Z,1.00
2022-09-15T16:31:19.315Z,2.00
2022-09-15T16:31:29.268Z,2.00
2022-09-15T16:31:39.307Z,2.00
2022-09-15T16:31:49.258Z,2.00
2022-09-15T16:31:59.234Z,2.00
2022-09-15T16:32:09.248Z,2.00
2022-09-15T16:32:19.261Z,2.00
2022-09-15T16:32:29.253Z,2.00
2022-09-15T16:32:39.252Z,2.00
2022-09-15T16:32:49.254Z,6.00
2022-09-15T16:32:59.257Z,6.00
2022-09-15T16:33:09.254Z,4.00
2022-09-15T16:33:19.254Z,5.00
2022-09-15T16:33:29.262Z,7.00
2022-09-15T16:33:39.257Z,5.00
2022-09-15T16:33:49.262Z,5.00
2022-09-15T16:33:59.265Z,5.00
2022-09-15T16:34:09.260Z,5.00
2022-09-15T16:34:19.261Z,5.00
2022-09-15T16:34:29.267Z,5.00
2022-09-15T16:34:39.261Z,5.00
2022-09-15T16:34:49.247Z,5.00
2022-09-15T16:34:59.262Z,5.00
2022-09-15T16:35:09.263Z,5.00
2022-09-15T16:35:19.266Z,5.00
2022-09-15T16:35:29.263Z,5.00
2022-09-15T16:35:39.274Z,5.00
2022-09-15T16:35:49.270Z,4.00
2022-09-15T16:35:59.267Z,1.00
2022-09-15T16:36:09.268Z,1.00
2022-09-15T16:36:19.270Z,3.00
2022-09-15T16:36:29.272Z,3.00
2022-09-15T16:36:39.271Z,3.00
2022-09-15T16:36:49.273Z,3.00
2022-09-15T16:36:59.272Z,3.00
2022-09-15T16:37:09.271Z,4.00
2022-09-15T16:37:19.272Z,2.00
2022-09-15T16:37:29.276Z,2.00
2022-09-15T16:37:39.276Z,2.00
2022-09-15T16:37:49.329Z,0.00
2022-09-15T16:37:59.331Z,0.00
2022-09-15T16:38:09.331Z,0.00
2022-09-15T16:38:19.337Z,0.00
2022-09-15T16:38:29.338Z,0.00
2022-09-15T16:38:39.333Z,0.00
2022-09-15T16:38:49.292Z,2.00
2022-09-15T16:38:59.278Z,2.00
2022-09-15T16:39:09.279Z,2.00
2022-09-15T16:39:19.280Z,2.00
2022-09-15T16:39:29.283Z,2.00
2022-09-15T16:39:39.283Z,2.00
2022-09-15T16:39:49.312Z,2.00
2022-09-15T16:39:59.376Z,2.00
2022-09-15T16:40:09.320Z,2.00
2022-09-15T16:40:19.423Z,2.00
2022-09-15T16:40:29.387Z,6.00
2022-09-15T16:40:39.289Z,6.00
2022-09-15T16:40:49.287Z,5.00
2022-09-15T16:40:59.297Z,3.00
2022-09-15T16:41:09.291Z,3.00
2022-09-15T16:41:19.297Z,3.00
2022-09-15T16:41:29.288Z,3.00
2022-09-15T16:41:39.565Z,3.00